createdAt,value
2019-01-11T00:00:58.946Z,74.40
2019-01-11T00:03:29.153Z,74.20
2019-01-11T00:05:58.364Z,74.70
2019-01-11T00:08:26.874Z,74.90
2019-01-11T00:10:55.434Z,75.20
2019-01-11T00:13:24.090Z,75.30
2019-01-11T00:15:52.689Z,75.60
2019-01-11T00:18:21.234Z,75.80
2019-01-11T00:20:49.930Z,76.10
2019-01-11T00:23:18.562Z,75.00
2019-01-11T00:25:47.185Z,74.50
2019-01-11T00:28:15.835Z,73.50
2019-01-11T00:30:44.406Z,72.10
2019-01-11T00:33:12.991Z,72.00
2019-01-11T00:35:41.549Z,71.80
2019-01-11T00:38:10.366Z,71.30
2019-01-11T00:40:39.172Z,71.70
2019-01-11T00:43:07.814Z,72.00
2019-01-11T00:45:36.535Z,72.20
2019-01-11T00:48:05.367Z,72.70
2019-01-11T00:50:33.916Z,72.60
2019-01-11T00:53:02.601Z,73.10
2019-01-11T00:55:31.219Z,72.70
2019-01-11T00:57:59.773Z,72.40
2019-01-11T01:00:28.662Z,72.40
2019-01-11T01:02:57.305Z,70.90
2019-01-11T01:05:26.033Z,72.20
2019-01-11T01:07:54.996Z,73.30
2019-01-11T01:10:24.003Z,73.70
2019-01-11T01:12:53.052Z,74.10
2019-01-11T01:15:21.875Z,74.00
2019-01-11T01:17:50.538Z,73.30
2019-01-11T01:20:19.334Z,72.70
2019-01-11T01:22:47.981Z,72.50
2019-01-11T01:25:16.874Z,72.70
2019-01-11T01:27:45.513Z,73.00
2019-01-11T01:30:20.902Z,73.60
2019-01-11T01:32:49.614Z,73.30
2019-01-11T01:35:18.347Z,73.20
2019-01-11T01:37:47.218Z,72.90
2019-01-11T01:40:17.218Z,72.40
2019-01-11T01:42:45.897Z,72.30
2019-01-11T01:45:18.278Z,72.50
2019-01-11T01:47:47.039Z,73.20
2019-01-11T01:50:15.954Z,73.50
2019-01-11T01:53:03.842Z,73.00
2019-01-11T01:55:32.435Z,73.50
2019-01-11T01:58:01.063Z,74.10
2019-01-11T02:00:29.870Z,73.10
2019-01-11T02:02:58.487Z,73.70
2019-01-11T02:05:27.150Z,74.40
2019-01-11T02:07:55.779Z,74.20
2019-01-11T02:10:24.466Z,73.50
2019-01-11T02:12:53.067Z,74.30
2019-01-11T02:15:21.738Z,74.20
2019-01-11T02:18:11.126Z,73.80
2019-01-11T02:20:40.221Z,74.20
2019-01-11T02:23:08.835Z,74.00
2019-01-11T02:25:37.476Z,73.70
2019-01-11T02:28:06.117Z,73.80
2019-01-11T02:30:34.703Z,73.60
2019-01-11T02:33:03.521Z,73.70
2019-01-11T02:35:32.224Z,73.70
2019-01-11T02:38:00.775Z,73.60
2019-01-11T02:40:29.358Z,73.30
2019-01-11T02:42:58.126Z,73.40
2019-01-11T02:45:26.746Z,73.70
2019-01-11T02:47:55.459Z,73.90
2019-01-11T02:50:24.173Z,73.90
2019-01-11T02:52:52.951Z,73.80
2019-01-11T02:55:21.623Z,73.60
2019-01-11T02:57:50.551Z,73.60
2019-01-11T03:00:20.933Z,73.40
2019-01-11T03:02:49.536Z,73.40
2019-01-11T03:05:18.835Z,73.50
2019-01-11T03:07:47.721Z,72.70
2019-01-11T03:10:18.821Z,72.80
2019-01-11T03:12:47.767Z,73.30
2019-01-11T03:15:17.712Z,73.70
2019-01-11T03:17:46.675Z,73.20
2019-01-11T03:20:17.529Z,72.90
2019-01-11T03:22:46.450Z,73.30
2019-01-11T03:25:16.703Z,74.00
2019-01-11T03:27:45.288Z,73.90
2019-01-11T03:30:18.965Z,73.20
2019-01-11T03:32:47.577Z,73.70
2019-01-11T03:35:17.567Z,73.30
2019-01-11T03:37:47.741Z,73.40
2019-01-11T03:40:19.290Z,73.00
2019-01-11T03:42:48.026Z,73.20
2019-01-11T03:45:19.639Z,73.90
2019-01-11T03:47:48.446Z,74.30
2019-01-11T03:50:19.503Z,74.50
2019-01-11T03:52:48.463Z,74.30
2019-01-11T03:55:18.057Z,74.60
2019-01-11T03:57:46.935Z,74.30
2019-01-11T04:00:22.970Z,74.80
2019-01-11T04:02:52.503Z,74.90
2019-01-11T04:05:21.711Z,73.70
2019-01-11T04:07:50.402Z,73.40
2019-01-11T04:10:21.035Z,73.10
2019-01-11T04:12:49.677Z,73.90
2019-01-11T04:15:20.770Z,74.20
2019-01-11T04:18:08.778Z,73.80
2019-01-11T04:20:37.475Z,73.20
2019-01-11T04:23:06.278Z,73.50
2019-01-11T04:25:36.451Z,73.40
2019-01-11T04:28:05.756Z,73.20
2019-01-11T04:30:34.373Z,72.80
2019-01-11T04:33:02.990Z,73.60
2019-01-11T04:35:31.611Z,73.70
2019-01-11T04:38:00.398Z,73.90
2019-01-11T04:40:34.129Z,73.20
2019-01-11T04:42:59.363Z,73.50
2019-01-11T04:45:27.906Z,73.00
2019-01-11T04:47:56.578Z,72.50
2019-01-11T04:50:25.126Z,72.70
2019-01-11T04:52:53.749Z,72.20
2019-01-11T04:55:22.261Z,72.20
2019-01-11T04:58:10.185Z,72.70
2019-01-11T05:00:38.860Z,72.80
2019-01-11T05:03:07.447Z,73.40
2019-01-11T05:05:36.189Z,72.90
2019-01-11T05:08:05.037Z,73.40
2019-01-11T05:10:33.603Z,72.90
2019-01-11T05:13:03.941Z,72.80
2019-01-11T05:15:32.422Z,73.00
2019-01-11T05:18:00.973Z,72.60
2019-01-11T05:20:29.834Z,73.00
2019-01-11T05:22:58.482Z,72.90
2019-01-11T05:25:27.050Z,72.60
2019-01-11T05:27:55.594Z,72.60
2019-01-11T05:30:24.183Z,72.20
2019-01-11T05:32:52.766Z,72.10
2019-01-11T05:35:21.399Z,72.70
2019-01-11T05:37:49.956Z,71.90
2019-01-11T05:40:18.999Z,72.00
2019-01-11T05:42:47.796Z,71.80
2019-01-11T05:45:18.342Z,71.80
2019-01-11T05:47:47.030Z,71.90
2019-01-11T05:50:23.431Z,71.60
2019-01-11T05:52:47.477Z,71.30
2019-01-11T05:55:20.769Z,71.50
2019-01-11T05:57:56.982Z,71.60
2019-01-11T06:00:25.650Z,71.50
2019-01-11T06:02:54.643Z,71.70
2019-01-11T06:05:23.229Z,72.10
2019-01-11T06:07:52.887Z,71.40
2019-01-11T06:10:21.502Z,72.80
2019-01-11T06:12:50.160Z,73.10
2019-01-11T06:15:18.738Z,72.30
2019-01-11T06:17:48.350Z,72.00
2019-01-11T06:20:17.833Z,71.70
2019-01-11T06:22:46.502Z,71.90
2019-01-11T06:25:15.158Z,71.50
2019-01-11T06:27:43.842Z,71.70
2019-01-11T06:30:14.365Z,72.30
2019-01-11T06:32:43.051Z,71.70
2019-01-11T06:35:11.717Z,72.90
2019-01-11T06:37:40.450Z,72.50
2019-01-11T06:40:11.287Z,72.20
2019-01-11T06:42:40.073Z,72.30
2019-01-11T06:45:10.811Z,73.20
2019-01-11T06:47:39.904Z,72.80
2019-01-11T06:50:16.566Z,73.10
2019-01-11T06:52:45.202Z,72.90
2019-01-11T06:55:14.345Z,71.90
2019-01-11T06:57:44.398Z,71.80
2019-01-11T07:00:19.878Z,71.80
2019-01-11T07:02:53.644Z,71.60
2019-01-11T07:05:22.302Z,70.80
2019-01-11T07:07:50.871Z,71.20
2019-01-11T07:10:22.038Z,71.40
2019-01-11T07:12:50.874Z,71.20
2019-01-11T07:15:19.612Z,71.80
2019-01-11T07:17:48.259Z,72.00
2019-01-11T07:20:17.054Z,71.80
2019-01-11T07:22:45.951Z,71.40
2019-01-11T07:25:16.817Z,71.90
2019-01-11T07:27:47.138Z,71.70
2019-01-11T07:30:16.642Z,71.70
2019-01-11T07:32:45.794Z,72.30
2019-01-11T07:35:15.182Z,72.70
2019-01-11T07:37:45.505Z,72.40
2019-01-11T07:40:14.314Z,71.70
2019-01-11T07:42:42.916Z,71.70
2019-01-11T07:45:13.575Z,71.90
2019-01-11T07:47:42.541Z,71.40
2019-01-11T07:50:11.393Z,71.50
2019-01-11T07:52:40.252Z,71.30
2019-01-11T07:55:14.030Z,70.50
2019-01-11T07:57:46.453Z,70.80
2019-01-11T08:00:15.504Z,71.40
2019-01-11T08:02:44.362Z,71.60
2019-01-11T08:05:14.520Z,70.80
2019-01-11T08:07:43.346Z,71.40
2019-01-11T08:10:14.475Z,71.90
2019-01-11T08:12:43.094Z,71.90
2019-01-11T08:15:14.615Z,71.90
2019-01-11T08:17:43.187Z,71.40
2019-01-11T08:20:11.963Z,72.30
2019-01-11T08:22:41.819Z,72.00
2019-01-11T08:25:12.374Z,71.50
2019-01-11T08:27:41.293Z,71.50
2019-01-11T08:30:16.683Z,71.80
2019-01-11T08:32:45.628Z,72.00
2019-01-11T08:35:15.155Z,71.40
2019-01-11T08:37:43.961Z,71.40
2019-01-11T08:40:13.498Z,70.90
2019-01-11T08:42:42.231Z,70.70
2019-01-11T08:45:14.112Z,70.80
2019-01-11T08:47:43.193Z,70.80
2019-01-11T08:50:17.799Z,71.00
2019-01-11T08:52:46.590Z,70.90
2019-01-11T08:55:15.374Z,70.70
2019-01-11T08:57:43.956Z,70.60
2019-01-11T09:00:16.674Z,72.10
2019-01-11T09:02:45.222Z,72.20
2019-01-11T09:05:14.533Z,72.30
2019-01-11T09:07:43.466Z,72.00
2019-01-11T09:10:22.650Z,72.50
2019-01-11T09:12:47.308Z,72.50
2019-01-11T09:15:15.958Z,72.00
2019-01-11T09:18:04.250Z,71.70
2019-01-11T09:20:32.857Z,71.10
2019-01-11T09:23:01.603Z,71.50
2019-01-11T09:25:30.525Z,71.50
2019-01-11T09:28:02.061Z,71.70
2019-01-11T09:30:30.633Z,71.60
2019-01-11T09:32:59.526Z,71.90
2019-01-11T09:35:28.460Z,72.00
2019-01-11T09:37:58.846Z,71.70
2019-01-11T09:40:27.700Z,71.90
2019-01-11T09:42:56.314Z,71.90
2019-01-11T09:45:25.367Z,72.20
2019-01-11T09:47:53.970Z,72.30
2019-01-11T09:50:22.818Z,72.60
2019-01-11T09:52:51.889Z,72.50
2019-01-11T09:55:20.826Z,72.70
2019-01-11T09:57:49.392Z,72.30
2019-01-11T10:00:22.186Z,72.30
2019-01-11T10:02:52.476Z,72.80
2019-01-11T10:05:21.116Z,72.00
2019-01-11T10:07:49.738Z,71.80
2019-01-11T10:10:19.798Z,72.00
2019-01-11T10:12:49.114Z,71.70
2019-01-11T10:15:17.926Z,71.80
2019-01-11T10:17:48.554Z,72.10
2019-01-11T10:20:17.518Z,71.70
2019-01-11T10:22:46.434Z,72.00
2019-01-11T10:25:15.120Z,71.70
2019-01-11T10:27:43.759Z,71.90
2019-01-11T10:30:22.347Z,71.80
2019-01-11T10:32:51.198Z,71.80
2019-01-11T10:35:20.103Z,71.80
2019-01-11T10:37:49.034Z,71.10
2019-01-11T10:40:18.333Z,71.80
2019-01-11T10:42:47.230Z,72.20
2019-01-11T10:45:19.598Z,72.20
2019-01-11T10:47:48.356Z,72.40
2019-01-11T10:50:18.299Z,72.90
2019-01-11T10:52:47.214Z,71.70
2019-01-11T10:55:20.766Z,71.40
2019-01-11T10:57:49.498Z,71.60
2019-01-11T11:00:23.190Z,71.60
2019-01-11T11:02:52.939Z,71.60
2019-01-11T11:05:22.980Z,71.50
2019-01-11T11:07:52.182Z,72.30
2019-01-11T11:10:21.170Z,72.50
2019-01-11T11:12:50.267Z,71.50
2019-01-11T11:15:19.517Z,71.90
2019-01-11T11:17:50.703Z,72.10
2019-01-11T11:20:38.499Z,72.20
2019-01-11T11:23:07.650Z,71.60
2019-01-11T11:25:36.242Z,71.30
2019-01-11T11:28:04.945Z,72.40
2019-01-11T11:30:33.786Z,72.30
2019-01-11T11:33:02.789Z,71.30
2019-01-11T11:35:31.486Z,71.60
2019-01-11T11:38:01.402Z,71.40
2019-01-11T11:40:30.633Z,71.10
2019-01-11T11:42:59.374Z,71.00
2019-01-11T11:45:48.816Z,71.40
2019-01-11T11:48:17.602Z,71.00
2019-01-11T11:50:46.389Z,70.90
2019-01-11T11:53:14.854Z,71.50
2019-01-11T11:55:44.131Z,71.50
2019-01-11T11:58:13.022Z,70.80
2019-01-11T12:01:01.080Z,70.90
2019-01-11T12:03:32.696Z,70.50
2019-01-11T12:06:03.184Z,70.20
2019-01-11T12:08:32.390Z,70.60
2019-01-11T12:11:01.240Z,71.10
2019-01-11T12:13:30.090Z,71.40
2019-01-11T12:15:58.715Z,70.70
2019-01-11T12:18:27.506Z,71.10
2019-01-11T12:20:56.293Z,72.50
2019-01-11T12:23:24.919Z,72.60
2019-01-11T12:25:53.639Z,72.00
2019-01-11T12:28:22.394Z,72.10
2019-01-11T12:30:51.039Z,73.20
2019-01-11T12:33:19.666Z,72.10
2019-01-11T12:35:48.388Z,72.80
2019-01-11T12:38:17.232Z,73.20
2019-01-11T12:40:45.837Z,72.90
2019-01-11T12:43:14.528Z,72.70
2019-01-11T12:45:43.097Z,72.70
2019-01-11T12:48:11.851Z,72.70
2019-01-11T12:50:40.509Z,72.40
2019-01-11T12:53:09.120Z,72.70
2019-01-11T12:55:37.679Z,72.80
2019-01-11T12:58:06.278Z,72.90
2019-01-11T13:00:35.530Z,73.10
2019-01-11T13:03:04.522Z,72.90
2019-01-11T13:05:33.268Z,73.70
2019-01-11T13:08:02.327Z,73.30
2019-01-11T13:10:31.010Z,74.00
2019-01-11T13:12:59.766Z,73.80
2019-01-11T13:15:28.422Z,74.10
2019-01-11T13:17:57.448Z,73.70
2019-01-11T13:20:45.485Z,73.50
2019-01-11T13:23:14.214Z,73.00
2019-01-11T13:25:42.867Z,73.40
2019-01-11T13:28:11.666Z,74.20
2019-01-11T13:30:40.254Z,73.80
2019-01-11T13:33:09.095Z,74.40
2019-01-11T13:35:38.015Z,75.20
2019-01-11T13:38:06.622Z,75.20
2019-01-11T13:40:35.173Z,75.00
2019-01-11T13:43:04.119Z,74.50
2019-01-11T13:45:33.110Z,74.70
2019-01-11T13:48:01.730Z,74.50
2019-01-11T13:50:35.471Z,75.20
2019-01-11T13:53:05.694Z,74.40
2019-01-11T13:55:34.773Z,74.20
2019-01-11T13:58:03.542Z,74.00
2019-01-11T14:00:32.811Z,73.50
2019-01-11T14:03:01.673Z,73.10
2019-01-11T14:05:30.351Z,73.00
2019-01-11T14:07:59.150Z,73.70
2019-01-11T14:10:28.687Z,73.40
2019-01-11T14:12:57.404Z,73.70
2019-01-11T14:15:26.040Z,73.70
2019-01-11T14:17:55.688Z,74.00
2019-01-11T14:20:24.394Z,73.20
2019-01-11T14:22:53.215Z,72.60
2019-01-11T14:25:21.934Z,73.30
2019-01-11T14:27:50.557Z,73.50
2019-01-11T14:30:20.490Z,73.70
2019-01-11T14:32:49.615Z,73.90
2019-01-11T14:35:18.300Z,74.20
2019-01-11T14:37:47.066Z,74.80
2019-01-11T14:40:16.983Z,75.10
2019-01-11T14:42:45.999Z,75.60
2019-01-11T14:45:16.924Z,75.40
2019-01-11T14:47:46.029Z,76.30
2019-01-11T14:50:19.499Z,75.20
2019-01-11T14:52:48.254Z,74.90
2019-01-11T14:55:16.843Z,76.20
2019-01-11T14:57:45.682Z,75.60
2019-01-11T15:00:17.619Z,75.90
2019-01-11T15:02:46.447Z,76.40
2019-01-11T15:05:16.277Z,76.00
2019-01-11T15:07:46.110Z,75.50
2019-01-11T15:10:16.456Z,76.00
2019-01-11T15:12:46.459Z,76.60
2019-01-11T15:15:16.164Z,76.00
2019-01-11T15:17:44.880Z,76.50
2019-01-11T15:20:15.546Z,76.20
2019-01-11T15:22:44.454Z,75.90
2019-01-11T15:25:13.583Z,76.40
2019-01-11T15:27:42.191Z,76.80
2019-01-11T15:30:14.198Z,76.00
2019-01-11T15:32:43.454Z,75.60
2019-01-11T15:35:12.110Z,76.10
2019-01-11T15:37:40.771Z,76.20
2019-01-11T15:40:15.758Z,76.80
2019-01-11T15:42:44.631Z,77.00
2019-01-11T15:45:13.650Z,76.80
2019-01-11T15:47:42.798Z,77.90
2019-01-11T15:50:40.081Z,77.50
2019-01-11T15:53:29.783Z,77.20
2019-01-11T15:55:59.572Z,77.50
2019-01-11T15:58:28.367Z,77.70
2019-01-11T16:00:56.947Z,77.50
2019-01-11T16:03:25.628Z,77.90
2019-01-11T16:06:22.884Z,77.50
2019-01-11T16:09:12.805Z,77.20
2019-01-11T16:12:02.668Z,77.10
2019-01-11T16:14:37.323Z,77.60
2019-01-11T16:17:12.008Z,78.40
2019-01-11T16:19:40.798Z,78.50
2019-01-11T16:22:30.273Z,79.70
2019-01-11T16:24:58.893Z,78.40
2019-01-11T16:27:27.547Z,78.30
2019-01-11T16:29:56.170Z,78.70
2019-01-11T16:32:24.767Z,78.60
2019-01-11T16:34:59.100Z,78.60
2019-01-11T16:37:27.683Z,78.60
2019-01-11T16:39:56.519Z,78.70
2019-01-11T16:42:25.195Z,77.90
2019-01-11T16:44:53.710Z,78.10
2019-01-11T16:47:22.486Z,78.10
2019-01-11T16:49:51.041Z,78.20
2019-01-11T16:52:19.656Z,78.40
2019-01-11T16:54:48.287Z,78.50
2019-01-11T16:57:16.908Z,78.80
2019-01-11T16:59:45.786Z,78.70
2019-01-11T17:02:14.466Z,78.50
2019-01-11T17:04:43.036Z,78.50
2019-01-11T17:07:11.799Z,78.40
2019-01-11T17:09:40.381Z,78.20
2019-01-11T17:12:09.344Z,78.30
2019-01-11T17:14:38.005Z,78.60
2019-01-11T17:17:06.722Z,78.80
2019-01-11T17:19:35.327Z,78.90
2019-01-11T17:22:04.166Z,78.70
2019-01-11T17:24:32.964Z,79.00
2019-01-11T17:27:01.635Z,79.60
2019-01-11T17:29:30.230Z,79.00
2019-01-11T17:31:58.858Z,79.00
2019-01-11T17:34:27.416Z,78.90
2019-01-11T17:36:57.667Z,78.90
2019-01-11T17:39:26.249Z,78.80
2019-01-11T17:41:54.931Z,78.60
2019-01-11T17:44:25.241Z,78.50
2019-01-11T17:46:53.996Z,78.80
2019-01-11T17:49:22.791Z,78.20
2019-01-11T17:51:51.423Z,79.10
2019-01-11T17:54:19.938Z,78.90
2019-01-11T17:56:48.674Z,78.70
2019-01-11T17:59:17.457Z,78.60
2019-01-11T18:02:05.439Z,78.70
2019-01-11T18:04:34.320Z,78.70
2019-01-11T18:07:02.863Z,79.30
2019-01-11T18:09:31.625Z,79.60
2019-01-11T18:12:00.208Z,79.20
2019-01-11T18:14:28.753Z,79.40
2019-01-11T18:16:57.335Z,79.60
2019-01-11T18:19:26.104Z,79.90
2019-01-11T18:21:54.719Z,80.00
2019-01-11T18:24:23.479Z,79.70
2019-01-11T18:26:53.279Z,79.90
2019-01-11T18:29:22.061Z,80.00
2019-01-11T18:31:50.631Z,79.90
2019-01-11T18:34:19.234Z,80.40
2019-01-11T18:36:47.865Z,80.30
2019-01-11T18:39:16.506Z,80.80
2019-01-11T18:41:45.192Z,81.10
2019-01-11T18:44:13.852Z,81.00
2019-01-11T18:46:42.434Z,80.60
2019-01-11T18:49:13.527Z,80.30
2019-01-11T18:51:42.509Z,80.80
2019-01-11T18:54:11.102Z,80.70
2019-01-11T18:56:39.846Z,80.90
2019-01-11T18:59:08.655Z,80.70
2019-01-11T19:01:37.337Z,80.90
2019-01-11T19:04:06.437Z,80.10
2019-01-11T19:06:35.030Z,80.40
2019-01-11T19:09:05.138Z,80.80
2019-01-11T19:11:33.860Z,80.80
2019-01-11T19:14:02.462Z,80.60
2019-01-11T19:16:31.146Z,80.30
2019-01-11T19:18:59.814Z,80.30
2019-01-11T19:21:28.397Z,80.40
2019-01-11T19:23:56.984Z,80.10
2019-01-11T19:26:25.739Z,80.60
2019-01-11T19:28:55.082Z,80.40
2019-01-11T19:31:23.727Z,80.30
2019-01-11T19:33:52.316Z,80.10
2019-01-11T19:36:20.955Z,80.20
2019-01-11T19:38:51.125Z,80.50
2019-01-11T19:41:20.171Z,80.80
2019-01-11T19:43:48.674Z,80.70
2019-01-11T19:46:17.360Z,80.90
2019-01-11T19:48:46.051Z,81.20
2019-01-11T19:51:14.762Z,81.00
2019-01-11T19:53:43.451Z,80.80
2019-01-11T19:56:12.086Z,81.00
2019-01-11T19:58:40.764Z,81.00
2019-01-11T20:01:09.953Z,81.00
2019-01-11T20:03:38.636Z,81.00
2019-01-11T20:06:07.336Z,81.00
2019-01-11T20:08:36.048Z,81.30
2019-01-11T20:11:05.287Z,81.10
2019-01-11T20:13:33.927Z,80.70
2019-01-11T20:16:02.697Z,81.10
2019-01-11T20:18:31.345Z,80.90
2019-01-11T20:21:00.393Z,81.40
2019-01-11T20:23:34.880Z,81.00
2019-01-11T20:25:59.251Z,80.60
2019-01-11T20:28:27.910Z,81.00
2019-01-11T20:30:57.235Z,81.30
2019-01-11T20:33:25.943Z,80.60
2019-01-11T20:35:54.869Z,80.60
2019-01-11T20:38:23.429Z,80.80
2019-01-11T20:40:52.341Z,80.40
2019-01-11T20:43:20.976Z,79.90
2019-01-11T20:45:49.634Z,80.10
2019-01-11T20:48:18.417Z,80.00
2019-01-11T20:50:47.054Z,80.20
2019-01-11T20:53:15.759Z,80.20
2019-01-11T20:55:44.362Z,79.90
2019-01-11T20:58:12.928Z,79.10
2019-01-11T21:00:41.991Z,79.10
2019-01-11T21:03:10.970Z,79.50
2019-01-11T21:05:40.009Z,79.30
2019-01-11T21:08:08.729Z,79.30
2019-01-11T21:10:37.483Z,78.90
2019-01-11T21:13:07.240Z,79.00
2019-01-11T21:15:36.568Z,78.80
2019-01-11T21:18:05.695Z,79.00
2019-01-11T21:20:35.960Z,79.20
2019-01-11T21:23:04.614Z,79.30
2019-01-11T21:25:33.266Z,79.80
2019-01-11T21:28:21.188Z,79.80
2019-01-11T21:30:49.894Z,79.90
2019-01-11T21:33:18.643Z,80.10
2019-01-11T21:35:47.220Z,80.20
2019-01-11T21:38:15.882Z,80.00
2019-01-11T21:40:44.649Z,80.10
2019-01-11T21:43:14.841Z,80.40
2019-01-11T21:45:43.326Z,80.50
2019-01-11T21:48:11.906Z,80.30
2019-01-11T21:50:40.650Z,80.40
2019-01-11T21:53:09.242Z,80.30
2019-01-11T21:55:37.888Z,80.50
2019-01-11T21:58:06.526Z,80.70
2019-01-11T22:00:37.796Z,80.70
2019-01-11T22:03:07.872Z,80.60
2019-01-11T22:05:36.598Z,80.60
2019-01-11T22:08:05.511Z,80.80
2019-01-11T22:10:34.234Z,80.80
2019-01-11T22:13:02.846Z,80.90
2019-01-11T22:15:31.604Z,80.60
2019-01-11T22:18:00.347Z,80.90
2019-01-11T22:20:29.086Z,80.90
2019-01-11T22:22:57.734Z,80.60
2019-01-11T22:25:28.044Z,80.60
2019-01-11T22:27:56.627Z,80.90
2019-01-11T22:30:30.277Z,80.00
2019-01-11T22:32:56.366Z,80.10
2019-01-11T22:35:24.919Z,80.30
2019-01-11T22:37:53.601Z,79.90
2019-01-11T22:40:23.791Z,80.00
2019-01-11T22:42:56.152Z,79.90
2019-01-11T22:45:24.907Z,79.90
2019-01-11T22:47:53.674Z,79.70
2019-01-11T22:50:22.378Z,79.60
2019-01-11T22:52:52.394Z,79.60
2019-01-11T22:55:21.251Z,80.00
2019-01-11T22:57:49.997Z,80.40
2019-01-11T23:00:46.011Z,80.10
2019-01-11T23:03:17.741Z,79.70
2019-01-11T23:05:47.715Z,79.60
2019-01-11T23:08:18.207Z,79.40
2019-01-11T23:11:15.551Z,79.50
2019-01-11T23:13:44.232Z,79.80
2019-01-11T23:16:15.910Z,80.10
2019-01-11T23:18:45.244Z,79.70
2019-01-11T23:21:13.826Z,79.40
2019-01-11T23:23:42.408Z,79.30
2019-01-11T23:26:11.063Z,79.50
2019-01-11T23:28:39.751Z,79.10
2019-01-11T23:31:09.104Z,79.30
2019-01-11T23:33:37.703Z,79.20
2019-01-11T23:36:06.254Z,78.80
2019-01-11T23:38:34.859Z,78.80
2019-01-11T23:41:03.395Z,78.80
2019-01-11T23:43:32.039Z,78.90
2019-01-11T23:46:00.611Z,79.00
2019-01-11T23:48:29.205Z,78.90
2019-01-11T23:50:57.988Z,79.30
2019-01-11T23:53:26.549Z,79.20
2019-01-11T23:55:55.255Z,79.60
2019-01-11T23:58:23.848Z,79.40
